Southwold, United Kingdom
Current Conditions -  °F | °C
As of 9:50 AM on Tuesday 21 Oct 2014 (Local Time) from EGSD Reporting Station
Broken Clouds Broken Clouds  
Wind Chill: 15°   Ceiling: 2000
Heat Index: 15°   Visibility: 6mi
Dew Point: 13°   Wind: 22mph
Humidity: 88%   Direction: 230°SW
Pressure: 29.41"   Gusts: 35mph
Location:  52.33°N, 1.68°E
Report Text: EGSD 210850Z 23019G30KT 9999 SCT015 BKN020 15/13 Q0996
Loading
Personal Weather Stations






























Interactive Weather Map
Tropical Storm Tracking
New forecast layout! Learn more

10-Day Weather Forecast

Advertisements
Track Severe Weather on mobile